createdAt,value
2022-08-05T04:06:35.116Z,21.10
2022-08-05T04:11:47.737Z,21.20
2022-08-05T04:16:55.036Z,21.20
2022-08-05T04:22:05.736Z,21.30
2022-08-05T04:27:15.895Z,21.30
2022-08-05T04:32:31.183Z,21.20
2022-08-05T04:38:01.502Z,21.20
2022-08-05T04:42:57.340Z,21.20
2022-08-05T04:48:07.340Z,21.20
2022-08-05T04:53:19.241Z,21.30
2022-08-05T04:58:22.725Z,21.40
2022-08-05T05:03:24.683Z,21.50
2022-08-05T05:08:30.452Z,21.60
2022-08-05T05:13:42.968Z,21.70
2022-08-05T05:19:08.897Z,21.80
2022-08-05T05:24:08.813Z,21.90
2022-08-05T05:29:14.898Z,22.10
2022-08-05T05:34:21.195Z,22.20
2022-08-05T05:39:34.578Z,22.40
2022-08-05T05:44:44.383Z,22.50
2022-08-05T05:49:56.994Z,22.80
2022-08-05T05:55:13.586Z,23.00
2022-08-05T06:00:21.594Z,23.20
2022-08-05T06:05:33.739Z,23.30
2022-08-05T06:10:37.383Z,23.50
2022-08-05T06:16:28.839Z,23.30
2022-08-05T06:21:16.593Z,23.00
2022-08-05T06:26:24.038Z,22.90
2022-08-05T06:31:30.441Z,22.90
2022-08-05T06:36:56.692Z,23.00
2022-08-05T06:41:58.960Z,23.10
2022-08-05T06:47:02.165Z,23.20
2022-08-05T06:52:04.818Z,23.40
2022-08-05T06:57:56.707Z,23.70
2022-08-05T07:02:29.439Z,23.90
2022-08-05T07:07:35.413Z,24.30
2022-08-05T07:13:03.461Z,24.60
2022-08-05T07:18:09.288Z,25.00
2022-08-05T07:23:13.022Z,25.10
2022-08-05T07:28:28.642Z,25.50
2022-08-05T07:33:36.855Z,25.90
2022-08-05T07:38:42.846Z,26.20
2022-08-05T07:43:45.981Z,26.30
2022-08-05T07:49:01.397Z,26.20
2022-08-05T07:54:08.401Z,26.10
2022-08-05T07:59:12.134Z,25.90
2022-08-05T08:04:16.573Z,25.90
2022-08-05T08:09:25.224Z,26.20
2022-08-05T08:14:31.083Z,26.50
2022-08-05T08:20:22.835Z,26.50
2022-08-05T08:24:55.505Z,26.30
2022-08-05T08:30:30.111Z,26.20
2022-08-05T08:35:28.282Z,26.20
2022-08-05T08:40:38.134Z,26.30
2022-08-05T08:45:41.518Z,26.60
2022-08-05T08:51:04.052Z,26.90
2022-08-05T08:56:07.191Z,27.50
2022-08-05T09:01:11.037Z,27.80
2022-08-05T09:06:20.415Z,28.10
2022-08-05T09:11:52.007Z,28.60
2022-08-05T09:16:48.940Z,29.30
2022-08-05T09:22:31.218Z,30.00
2022-08-05T09:28:05.055Z,30.40
2022-08-05T09:33:02.906Z,30.90
2022-08-05T09:38:16.648Z,31.10
2022-08-05T09:43:41.005Z,31.60
2022-08-05T09:49:03.703Z,31.50
2022-08-05T09:54:09.514Z,31.20
2022-08-05T09:59:16.861Z,31.30
2022-08-05T10:04:19.403Z,31.50
2022-08-05T10:09:45.246Z,31.30
2022-08-05T10:14:47.481Z,30.80
2022-08-05T10:20:04.135Z,31.10
2022-08-05T10:25:14.404Z,31.10
2022-08-05T10:31:20.867Z,31.50
2022-08-05T10:35:40.564Z,32.10
2022-08-05T10:40:59.186Z,32.30
2022-08-05T10:46:08.297Z,32.60
2022-08-05T10:51:21.686Z,32.70
2022-08-05T10:56:31.160Z,32.80
2022-08-05T11:01:54.172Z,32.90
2022-08-05T11:06:57.962Z,33.30
2022-08-05T11:12:00.007Z,32.80
2022-08-05T11:17:57.969Z,32.40
2022-08-05T11:22:54.079Z,31.80
2022-08-05T11:28:16.914Z,32.50
2022-08-05T11:33:46.697Z,32.30
2022-08-05T11:38:52.426Z,32.30
2022-08-05T11:44:13.003Z,32.00
2022-08-05T11:49:35.146Z,32.20
2022-08-05T11:54:38.264Z,31.90
2022-08-05T11:59:50.305Z,32.00
2022-08-05T12:04:59.212Z,32.60
2022-08-05T12:10:09.124Z,33.50
2022-08-05T12:15:38.375Z,34.00
2022-08-05T12:20:42.270Z,34.20
2022-08-05T12:25:53.633Z,34.30
2022-08-05T12:31:02.405Z,34.60
2022-08-05T12:36:08.797Z,34.70
2022-08-05T12:41:14.586Z,34.70
2022-08-05T12:46:28.949Z,34.80
2022-08-05T12:52:13.826Z,35.10
2022-08-05T12:56:58.368Z,35.20
2022-08-05T13:02:07.963Z,35.50
2022-08-05T13:07:55.948Z,35.40
2022-08-05T13:12:51.071Z,35.30
2022-08-05T13:17:59.617Z,34.80
2022-08-05T13:23:07.175Z,34.70
2022-08-05T13:28:10.569Z,34.60
2022-08-05T13:34:20.218Z,34.00
2022-08-05T13:38:36.338Z,33.80
2022-08-05T13:43:45.651Z,34.40
2022-08-05T13:49:01.011Z,35.00
2022-08-05T13:54:03.317Z,35.30
2022-08-05T13:59:20.277Z,35.50
2022-08-05T14:04:41.924Z,35.50
2022-08-05T14:09:46.364Z,35.30
2022-08-05T14:14:48.908Z,35.30
2022-08-05T14:19:56.814Z,35.70
2022-08-05T14:25:06.494Z,35.90
2022-08-05T14:30:21.648Z,36.10
2022-08-05T14:35:23.750Z,36.40
2022-08-05T14:40:39.629Z,36.40
2022-08-05T14:45:45.908Z,36.00
